Airfield :
LOGIN :

Register | Disclaimer

   EN    FR    IT 

 










Legend :    VFR   Marginal VFR   IFR   Intensive IFR   Very Intensive IFR
Visi :
Ceiling :
>= 8 km
>= 3000ft
5 to 8 km
1000 to 3000 ft
1500m to 5 km
500 to 1000 ft
800 to 1500m
200 to 500 ft
< 800m
< 200 ft
Symbols :   Thunderstorms  Fog  Heavy snow  Heavy precipitations  Wind > 20 kt
SIGMETs :     Misc.  Thunderstorms  Icing  Turbulence  Mountain Waves  Volcanic Ashes







- Airport Elevation : 348 ft
- IATA code : STN
- Download approach charts


EGSS - London Stansted

CURRENT METAR :
  • 200920Z AUTO 13005KT 070V160 9999 NCD 14/10 Q1023

EXPIRED METARs :
  • 200850Z AUTO 14004KT 100V180 9999 NCD 13/10 Q1024
  • 200820Z AUTO 15004KT 090V180 9999 NCD 13/10 Q1024
  • 200750Z AUTO VRB03KT 8000 FEW004 11/10 Q1024
  • 200720Z 11005KT 080V190 4100 BR BKN003 10/10 Q1024
  • 200650Z 13005KT 090V180 3300 BR BKN001 OVC002 09/09 Q1024

TAF TAF EGSS
Valid from the 20 at 06:00 until the 21 at 12:00 UTC


200459Z 2006/2112 12005KT 0700 BCFG BKN001
BECMG 2006/2008 7000 NSW BKN008
BECMG 2008/2010 9999 FEW030
BECMG 2021/2024 6000
TEMPO 2100/2108 2500 BR BKN002
PROB30 2101/2107 0300 FG OVC000
BECMG 2108/2110 9999
ATIS : +44 1279 669 325
No reported NOTAMs for that airfield.



MET'MAP, your aeronautical weather chart ! - Copyright ORBIFLY December 2007 - Disclaimer

ORBIFLY MET'MAP TEAM :

Programming & Development : Alexandra Zaïnal
Concept & Development : Baudouin d'Aumeries
Co-Development & Prog : Marc-Olivier Méhu
Technical & hardware support : Manuel Goepfert

Contact : metmap@orbifly.com




SOURCES & CREDITS :

   NOAA